Time;durP1;ratioP1;P1;durP2;ratioP2;P2;SDS_P1;SDS_P2;PMS_P1;PMS_P2;Temp;Humidity;BMP_temperature;BMP_pressure;BME280_temperature;BME280_humidity;BME280_pressure;Samples;Min_cycle;Max_cycle;Signal;HPM_P1;HPM_P2
2021/04/09 00:01:17;;;;;;;22.92;20.10;;;;;;;-144.99;60.01;52386.94;4994537;28;20670;-78
2021/04/09 00:03:44;;;;;;;21.23;16.23;;;;;;;-144.99;60.08;52399.19;4995258;28;20659;-78
2021/04/09 00:06:13;;;;;;;18.90;15.65;;;;;;;-144.99;60.55;52415.47;4995085;28;20665;-79
2021/04/09 00:08:41;;;;;;;22.02;17.35;;;;;;;-144.99;59.89;52364.53;4994228;28;20334;-80
2021/04/09 00:11:07;;;;;;;20.98;17.50;;;;;;;-144.99;59.74;52386.94;4995256;28;20206;-80
2021/04/09 00:13:33;;;;;;;18.33;15.23;;;;;;;-144.99;60.07;52370.63;4996072;28;20211;-80
2021/04/09 00:15:59;;;;;;;20.90;16.60;;;;;;;-144.99;60.03;52397.13;4994456;28;20195;-79
2021/04/09 00:18:25;;;;;;;19.05;15.38;;;;;;;-144.99;59.78;52407.31;4994688;28;20757;-78
2021/04/09 00:20:51;;;;;;;20.05;16.05;;;;;;;-144.99;59.60;52415.47;4994206;28;20725;-77
2021/04/09 00:23:17;;;;;;;26.73;23.97;;;;;;;-144.99;59.74;52415.47;4994288;28;20207;-76
2021/04/09 00:25:44;;;;;;;17.98;14.20;;;;;;;-144.99;60.05;52364.53;4993327;28;20689;-78
2021/04/09 00:28:10;;;;;;;18.95;14.50;;;;;;;-144.99;59.79;52395.09;4994182;28;20200;-77
2021/04/09 00:30:36;;;;;;;18.90;14.18;;;;;;;-144.99;59.81;52395.09;4993122;28;20247;-76
2021/04/09 00:33:02;;;;;;;17.50;13.25;;;;;;;-144.99;59.73;52423.63;4993859;28;20370;-76
2021/04/09 00:35:29;;;;;;;23.85;21.25;;;;;;;-144.99;59.49;52403.25;4994031;28;20728;-77
2021/04/09 00:37:55;;;;;;;18.58;13.68;;;;;;;-144.99;60.01;52407.31;4993717;28;20223;-78
2021/04/09 00:40:22;;;;;;;17.50;12.63;;;;;;;-144.99;59.77;52386.94;4993466;28;20721;-77
2021/04/09 00:42:49;;;;;;;23.02;19.45;;;;;;;-144.99;60.03;52370.63;4994475;28;20214;-79
2021/04/09 00:45:15;;;;;;;27.65;21.08;;;;;;;-144.99;59.74;52382.88;4974358;28;20212;-77
2021/04/09 00:47:43;;;;;;;19.08;14.90;;;;;;;-144.99;60.24;52370.63;4993559;28;20199;-78
2021/04/09 00:50:10;;;;;;;24.35;16.73;;;;;;;-144.99;60.03;52374.72;4993582;28;20775;-78
2021/04/09 00:52:38;;;;;;;19.75;15.02;;;;;;;-144.99;60.35;52415.47;4989817;28;20206;-78
2021/04/09 00:55:06;;;;;;;18.83;13.55;;;;;;;-144.99;60.03;52386.94;4995203;28;20279;-77
2021/04/09 00:57:33;;;;;;;17.77;12.50;;;;;;;-144.99;60.24;52378.78;4993774;28;20203;-78
2021/04/09 01:00:00;;;;;;;30.52;19.00;;;;;;;-144.99;59.77;52429.75;4992750;28;20238;-79
2021/04/09 01:02:26;;;;;;;24.52;21.45;;;;;;;-144.99;60.28;52391.03;4993360;28;20204;-78
2021/04/09 01:04:52;;;;;;;22.35;20.02;;;;;;;-144.99;60.38;52399.19;4993813;28;20200;-79
2021/04/09 01:07:19;;;;;;;24.20;21.10;;;;;;;-144.99;59.98;52401.22;4993391;28;20212;-77
2021/04/09 01:09:45;;;;;;;21.38;18.45;;;;;;;-144.99;60.12;52382.88;4992584;28;20231;-77
2021/04/09 01:12:11;;;;;;;20.77;18.50;;;;;;;-144.99;60.50;52391.03;4994073;28;20204;-76
2021/04/09 01:14:38;;;;;;;30.73;27.00;;;;;;;-144.99;60.75;52358.41;4993396;28;20246;-78
2021/04/09 01:17:13;;;;;;;27.38;24.08;;;;;;;-144.99;60.70;52362.50;4992949;28;20708;-78
2021/04/09 01:20:15;;;;;;;32.08;26.98;;;;;;;-144.99;60.71;52386.94;4991064;28;20289;-77
2021/04/09 01:22:44;;;;;;;30.98;23.80;;;;;;;-144.99;60.36;52374.72;4989750;28;20206;-77
2021/04/09 01:25:27;;;;;;;19.70;17.48;;;;;;;-144.99;60.71;52423.63;4991740;28;20692;-77
2021/04/09 01:28:11;;;;;;;18.05;13.15;;;;;;;-144.99;61.45;52386.94;4993279;28;20207;-77
2021/04/09 01:30:56;;;;;;;21.67;14.63;;;;;;;-144.99;61.16;52366.56;4991348;28;20235;-75
2021/04/09 01:33:26;;;;;;;20.05;15.50;;;;;;;-144.99;61.37;52384.91;4992991;28;20192;-75
2021/04/09 01:35:57;;;;;;;22.70;19.02;;;;;;;-144.99;61.23;52370.63;4992003;28;20576;-76
2021/04/09 01:38:28;;;;;;;24.38;20.67;;;;;;;-144.99;61.11;52370.63;4992017;28;20223;-74
2021/04/09 01:40:56;;;;;;;29.17;26.30;;;;;;;-144.99;61.16;52346.19;5016635;22;20654;-70
2021/04/09 01:43:24;;;;;;;19.70;14.48;;;;;;;-144.99;61.08;52401.22;4989386;28;20204;-71
2021/04/09 01:45:51;;;;;;;23.27;19.67;;;;;;;-144.99;61.00;52366.56;4988501;28;20467;-75
2021/04/09 01:48:19;;;;;;;22.38;16.95;;;;;;;-144.99;61.11;52395.09;4990549;28;20689;-73
2021/04/09 01:50:47;;;;;;;22.30;17.05;;;;;;;-144.99;61.27;52378.78;4987796;28;20331;-73
2021/04/09 01:53:14;;;;;;;31.35;28.40;;;;;;;-144.99;60.91;52439.94;4986416;28;20218;-73
2021/04/09 01:55:46;;;;;;;27.48;23.02;;;;;;;-144.99;61.28;52403.25;4985630;28;20206;-72
2021/04/09 01:58:13;;;;;;;27.58;22.67;;;;;;;-144.99;60.96;52362.50;4989756;28;20290;-72
2021/04/09 02:00:41;;;;;;;25.13;18.85;;;;;;;-144.99;61.25;52382.88;4990812;28;20254;-75
2021/04/09 02:03:09;;;;;;;24.55;20.38;;;;;;;-144.99;61.29;52399.19;4975545;28;20635;-74
2021/04/09 02:05:37;;;;;;;25.98;21.70;;;;;;;-144.99;61.31;52374.72;4993765;28;20269;-75
2021/04/09 02:08:05;;;;;;;24.77;21.88;;;;;;;-144.99;61.20;52364.53;4992246;28;20213;-76
2021/04/09 02:10:32;;;;;;;24.55;20.30;;;;;;;-144.99;61.20;52386.94;4991580;28;20597;-75
2021/04/09 02:12:58;;;;;;;23.95;19.73;;;;;;;-144.99;61.26;52356.38;4990720;28;20314;-74
2021/04/09 02:15:29;;;;;;;18.90;16.23;;;;;;;-144.99;61.36;52393.06;4990406;28;20597;-76
2021/04/09 02:17:55;;;;;;;17.15;14.85;;;;;;;-144.99;61.32;52415.47;4991615;28;20223;-76
2021/04/09 02:20:23;;;;;;;19.65;17.60;;;;;;;-144.99;61.22;52435.88;4991902;28;20569;-74
2021/04/09 02:22:52;;;;;;;25.40;21.80;;;;;;;-144.99;61.33;52415.47;4990271;28;20203;-76
2021/04/09 02:25:22;;;;;;;20.13;17.80;;;;;;;-144.99;61.20;52370.63;4990269;28;20681;-76
2021/04/09 02:27:49;;;;;;;19.75;17.02;;;;;;;-144.99;61.32;52386.94;4991413;28;20662;-75
2021/04/09 02:30:17;;;;;;;19.90;16.48;;;;;;;-144.99;61.51;52407.31;4991400;28;20747;-75
2021/04/09 02:32:43;;;;;;;19.17;16.85;;;;;;;-144.99;61.59;52382.88;4991066;28;20214;-75
2021/04/09 02:35:11;;;;;;;17.08;14.77;;;;;;;-144.99;61.70;52407.31;4991349;28;20206;-75
2021/04/09 02:37:40;;;;;;;17.55;15.05;;;;;;;-144.99;62.08;52368.59;4990201;28;20638;-75
2021/04/09 02:40:11;;;;;;;26.50;19.55;;;;;;;-144.99;61.83;52395.09;4990790;28;20251;-75
2021/04/09 02:42:39;;;;;;;20.42;16.88;;;;;;;-144.99;61.85;52391.03;4980111;28;20662;-77
2021/04/09 02:45:08;;;;;;;22.02;19.75;;;;;;;-144.99;62.04;52395.09;4990964;28;20246;-75
2021/04/09 02:47:38;;;;;;;21.73;19.67;;;;;;;-144.99;62.13;52403.25;4991430;28;20579;-75
2021/04/09 02:50:11;;;;;;;19.33;16.88;;;;;;;-144.99;62.05;52395.09;4990967;28;20280;-75
2021/04/09 02:52:43;;;;;;;19.88;16.83;;;;;;;-144.99;62.07;52368.59;4995492;28;20203;-75
2021/04/09 02:55:14;;;;;;;26.75;18.77;;;;;;;-144.99;62.24;52374.72;5000057;28;20196;-75
2021/04/09 02:57:44;;;;;;;18.85;15.98;;;;;;;-144.99;62.40;52350.25;4991551;28;20269;-74
2021/04/09 03:00:11;;;;;;;18.10;15.07;;;;;;;-144.99;62.63;52380.84;4990723;28;20235;-77
2021/04/09 03:02:41;;;;;;;18.20;15.18;;;;;;;-144.99;62.85;52364.53;4991112;28;20283;-74
2021/04/09 03:05:09;;;;;;;27.30;18.92;;;;;;;-144.99;62.70;52382.88;4991176;28;20203;-77
2021/04/09 03:07:38;;;;;;;18.83;15.70;;;;;;;-144.99;63.06;52393.06;4990479;28;20207;-77
2021/04/09 03:10:06;;;;;;;19.13;15.80;;;;;;;-144.99;62.85;52366.56;4997111;28;20260;-75
2021/04/09 03:12:32;;;;;;;18.60;14.10;;;;;;;-144.99;63.08;52399.19;4998209;28;20207;-75
2021/04/09 03:15:03;;;;;;;21.08;18.85;;;;;;;-144.99;63.26;52368.59;4991432;28;20207;-75
2021/04/09 03:17:31;;;;;;;22.10;17.35;;;;;;;-144.99;63.26;52425.66;4989488;28;20611;-73
2021/04/09 03:19:57;;;;;;;25.73;18.17;;;;;;;-144.99;63.42;52378.78;4974168;28;20220;-74
2021/04/09 03:22:23;;;;;;;21.02;16.48;;;;;;;-144.99;63.39;52362.50;4990057;28;20207;-75
2021/04/09 03:24:49;;;;;;;34.58;27.27;;;;;;;-144.99;63.62;52403.25;4989160;28;20214;-74
2021/04/09 03:27:16;;;;;;;20.63;16.40;;;;;;;-144.99;63.88;52419.56;4989451;28;20234;-74
2021/04/09 03:29:43;;;;;;;21.67;19.27;;;;;;;-144.99;64.07;52395.09;4989383;28;20772;-76
2021/04/09 03:32:12;;;;;;;19.20;15.18;;;;;;;-144.99;63.95;52382.88;4990742;28;20211;-74
2021/04/09 03:34:38;;;;;;;24.85;19.15;;;;;;;-144.99;64.08;52423.63;4994959;28;20219;-77
2021/04/09 03:37:04;;;;;;;28.08;25.05;;;;;;;-144.99;63.85;52413.44;4994148;28;20222;-74
2021/04/09 03:39:30;;;;;;;30.02;27.05;;;;;;;-144.99;64.14;52382.88;4993631;28;20227;-75
2021/04/09 03:41:56;;;;;;;24.95;22.10;;;;;;;-144.99;64.53;52395.09;4993674;28;20249;-74
2021/04/09 03:44:22;;;;;;;30.70;27.45;;;;;;;-144.99;64.21;52391.03;4994043;28;20666;-76
2021/04/09 03:46:48;;;;;;;22.87;17.43;;;;;;;-144.99;64.37;52403.25;4993189;28;20211;-74
2021/04/09 03:49:15;;;;;;;21.50;18.27;;;;;;;-144.99;64.24;52419.56;4994238;28;20615;-75
2021/04/09 03:51:42;;;;;;;28.88;21.45;;;;;;;-144.99;64.25;52419.56;4983728;28;20229;-76
2021/04/09 03:54:08;;;;;;;24.77;21.75;;;;;;;-144.99;64.40;52378.78;4992682;28;20203;-76
2021/04/09 03:56:34;;;;;;;26.55;20.90;;;;;;;-144.99;64.86;52415.47;4992050;28;20256;-75
2021/04/09 03:59:00;;;;;;;21.15;15.50;;;;;;;-144.99;64.43;52362.50;4992816;28;20599;-74
2021/04/09 04:01:27;;;;;;;26.07;20.33;;;;;;;-144.99;64.55;52382.88;4992665;28;20269;-75
2021/04/09 04:03:53;;;;;;;20.80;16.52;;;;;;;-144.99;64.67;52444.03;4994505;28;20749;-74
2021/04/09 04:06:20;;;;;;;24.55;18.73;;;;;;;-144.99;64.87;52382.88;4993555;28;20684;-72
2021/04/09 04:08:46;;;;;;;19.80;16.40;;;;;;;-144.99;64.55;52333.94;4993620;28;20204;-75
2021/04/09 04:11:12;;;;;;;21.75;17.15;;;;;;;-144.99;64.73;52362.50;4994348;28;20299;-74
2021/04/09 04:13:38;;;;;;;22.35;17.17;;;;;;;-144.99;64.57;52391.03;4995848;28;20212;-74
2021/04/09 04:16:05;;;;;;;20.73;16.03;;;;;;;-144.99;64.81;52366.56;4992680;28;20259;-76
2021/04/09 04:18:31;;;;;;;35.88;31.77;;;;;;;-144.99;64.92;52423.63;4994421;28;20655;-76
2021/04/09 04:20:57;;;;;;;23.45;20.17;;;;;;;-144.99;64.78;52407.31;4994069;28;20708;-76
2021/04/09 04:23:24;;;;;;;20.92;13.98;;;;;;;-144.99;64.91;52382.88;4993370;28;20199;-78
2021/04/09 04:25:50;;;;;;;25.30;19.40;;;;;;;-144.99;64.84;52419.56;4993158;28;20203;-76
2021/04/09 04:28:16;;;;;;;19.65;14.13;;;;;;;-144.99;64.92;52376.75;4992972;28;20233;-76
2021/04/09 04:30:50;;;;;;;18.58;14.48;;;;;;;-144.99;65.01;52366.56;4992471;28;20235;-75
2021/04/09 04:33:17;;;;;;;29.27;18.05;;;;;;;-144.99;64.93;52419.56;4992159;28;20986;-76
2021/04/09 04:35:43;;;;;;;17.92;12.63;;;;;;;-144.99;65.08;52407.31;4994082;28;20281;-76
2021/04/09 04:38:09;;;;;;;20.70;14.85;;;;;;;-144.99;64.68;52366.56;4992613;28;20235;-77
2021/04/09 04:40:35;;;;;;;20.00;12.35;;;;;;;-144.99;64.96;52403.25;4992861;28;20262;-77
2021/04/09 04:43:02;;;;;;;20.25;15.45;;;;;;;-144.99;65.24;52409.38;4993490;28;20306;-77
2021/04/09 04:45:28;;;;;;;19.63;14.27;;;;;;;-144.99;65.30;52407.31;4992450;28;20204;-73
2021/04/09 04:47:53;;;;;;;22.88;19.02;;;;;;;-144.99;65.53;52403.25;4995969;28;20382;-77
2021/04/09 04:50:19;;;;;;;43.70;20.57;;;;;;;-144.99;65.49;52386.94;4994284;28;20347;-75
2021/04/09 04:52:45;;;;;;;21.43;17.17;;;;;;;-144.99;65.50;52415.47;4987851;28;20658;-73
2021/04/09 04:55:12;;;;;;;26.98;20.45;;;;;;;-144.99;65.50;52386.94;4991995;28;21143;-75
2021/04/09 04:57:39;;;;;;;24.13;20.05;;;;;;;-144.99;65.50;52395.09;4991610;28;20199;-73
2021/04/09 05:00:11;;;;;;;23.40;20.98;;;;;;;-144.99;65.47;52405.28;4992342;28;20224;-73
2021/04/09 05:02:37;;;;;;;33.28;27.70;;;;;;;-144.99;65.89;52380.84;4993234;28;20230;-74
2021/04/09 05:05:05;;;;;;;21.58;18.70;;;;;;;-144.99;66.04;52374.72;4992077;28;20286;-74
2021/04/09 05:07:31;;;;;;;22.27;19.70;;;;;;;-144.99;66.10;52350.25;4991419;28;20770;-76
2021/04/09 05:09:57;;;;;;;18.85;16.60;;;;;;;-144.99;66.24;52376.75;4992149;28;20231;-76
2021/04/09 05:12:26;;;;;;;16.75;14.95;;;;;;;-144.99;66.41;52419.56;4992430;28;20279;-77
2021/04/09 05:14:53;;;;;;;18.17;13.90;;;;;;;-144.99;66.32;52399.19;4992624;28;20207;-75
2021/04/09 05:17:20;;;;;;;17.02;14.18;;;;;;;-144.99;66.59;52386.94;4989866;28;20211;-75
2021/04/09 05:19:46;;;;;;;33.47;25.90;;;;;;;-144.99;66.26;52386.94;4992878;28;20681;-76
2021/04/09 05:22:15;;;;;;;33.47;29.73;;;;;;;-144.99;66.60;52399.19;4992201;28;20196;-77
2021/04/09 05:24:41;;;;;;;27.70;21.27;;;;;;;-144.99;66.64;52374.72;4992605;28;20207;-75
2021/04/09 05:27:07;;;;;;;22.17;19.88;;;;;;;-144.99;66.94;52354.34;4991662;28;20237;-76
2021/04/09 05:29:36;;;;;;;22.73;17.85;;;;;;;-144.99;66.99;52401.22;4992365;28;20204;-74
2021/04/09 05:32:06;;;;;;;23.00;18.48;;;;;;;-144.99;67.10;52411.41;4992951;28;20227;-75
2021/04/09 05:34:32;;;;;;;27.00;23.52;;;;;;;-144.99;67.21;52370.63;4994450;28;20203;-76
2021/04/09 05:36:58;;;;;;;63.60;22.90;;;;;;;-144.99;67.14;52354.34;4993792;28;20681;-75
2021/04/09 05:39:30;;;;;;;25.58;22.83;;;;;;;-144.99;67.25;52403.25;4993009;28;20758;-76
2021/04/09 05:41:56;;;;;;;26.73;21.80;;;;;;;-144.99;67.17;52399.19;4993193;28;20215;-77
2021/04/09 05:44:22;;;;;;;18.88;14.52;;;;;;;-144.99;67.43;52352.28;4992907;28;20207;-75
2021/04/09 05:46:48;;;;;;;18.40;13.85;;;;;;;-144.99;67.57;52395.09;4992568;28;20207;-76
2021/04/09 05:49:16;;;;;;;23.35;18.73;;;;;;;-144.99;67.54;52374.72;4992878;28;20230;-75
2021/04/09 05:51:43;;;;;;;23.25;19.88;;;;;;;-144.99;67.73;52378.78;4992151;28;20764;-75
2021/04/09 05:54:10;;;;;;;30.02;19.95;;;;;;;-144.99;67.74;52386.94;4992046;28;20215;-74
2021/04/09 05:56:36;;;;;;;19.60;15.55;;;;;;;-144.99;67.98;52413.44;4991266;28;20218;-74
2021/04/09 05:59:02;;;;;;;21.30;17.47;;;;;;;-144.99;67.55;52378.78;4992160;28;20306;-74
2021/04/09 06:01:31;;;;;;;30.83;27.85;;;;;;;-144.99;67.79;52366.56;4991755;28;20692;-73
2021/04/09 06:03:57;;;;;;;56.05;51.90;;;;;;;-144.99;68.02;52350.25;4991749;28;20222;-75
2021/04/09 06:06:24;;;;;;;25.33;22.63;;;;;;;-144.99;67.87;52397.13;4991382;28;20592;-73
2021/04/09 06:08:50;;;;;;;50.08;23.85;;;;;;;-144.99;67.73;52386.94;4992271;28;20949;-74
2021/04/09 06:11:16;;;;;;;21.77;19.38;;;;;;;-144.99;68.10;52403.25;4994149;28;20223;-75
2021/04/09 06:13:42;;;;;;;22.75;16.40;;;;;;;-144.99;67.77;52362.50;4995657;28;20218;-73
2021/04/09 06:16:08;;;;;;;23.25;20.77;;;;;;;-144.99;67.88;52395.09;4997874;28;21307;-74
2021/04/09 06:18:37;;;;;;;24.65;22.27;;;;;;;-144.99;67.90;52399.19;5002706;28;20535;-73
2021/04/09 06:21:04;;;;;;;26.67;23.85;;;;;;;-144.99;67.96;52370.63;4995533;28;20231;-76
2021/04/09 06:23:31;;;;;;;26.95;24.50;;;;;;;-144.99;67.88;52333.94;4991438;28;20215;-74
2021/04/09 06:25:57;;;;;;;22.08;18.08;;;;;;;-144.99;68.16;52362.50;4990788;28;20200;-74
2021/04/09 06:28:23;;;;;;;26.27;23.63;;;;;;;-144.99;68.42;52415.47;4991432;28;20199;-75
2021/04/09 06:30:49;;;;;;;22.42;18.83;;;;;;;-144.99;68.70;52350.25;4991161;28;20222;-74
2021/04/09 06:33:15;;;;;;;21.55;18.25;;;;;;;-144.99;68.32;52382.88;4991749;28;20697;-74
2021/04/09 06:35:41;;;;;;;22.63;18.65;;;;;;;-144.99;68.30;52419.56;4991797;28;20210;-76
2021/04/09 06:38:07;;;;;;;23.97;21.40;;;;;;;-144.99;68.40;52382.88;4992583;28;20736;-74
2021/04/09 06:40:34;;;;;;;38.50;22.50;;;;;;;-144.99;68.50;52364.53;4989210;28;20721;-75
2021/04/09 06:43:00;;;;;;;175.00;59.17;;;;;;;-144.99;68.64;52344.16;4989461;28;20657;-77
2021/04/09 06:45:27;;;;;;;35.10;24.30;;;;;;;-144.99;68.66;52386.94;4991265;28;20195;-78
2021/04/09 06:47:54;;;;;;;31.05;26.42;;;;;;;-144.99;68.33;52378.78;4993579;28;20211;-75
2021/04/09 06:50:20;;;;;;;36.55;26.00;;;;;;;-144.99;68.60;52358.41;4992366;28;20399;-76
2021/04/09 06:52:47;;;;;;;28.50;25.58;;;;;;;-144.99;68.38;52354.34;4993150;28;20204;-75
2021/04/09 06:55:18;;;;;;;37.63;31.20;;;;;;;-144.99;68.19;52358.41;4992353;28;20200;-76
2021/04/09 06:57:46;;;;;;;21.05;18.77;;;;;;;-144.99;68.27;52374.72;4994863;28;20550;-77
2021/04/09 07:00:13;;;;;;;23.08;17.80;;;;;;;-144.99;68.15;52386.94;4994214;28;20227;-77
2021/04/09 07:02:42;;;;;;;39.88;35.83;;;;;;;-144.99;68.30;52378.78;4993279;28;20210;-74
2021/04/09 07:05:09;;;;;;;22.00;17.15;;;;;;;-144.99;68.18;52362.50;4994699;28;20207;-77
2021/04/09 07:07:35;;;;;;;20.38;15.73;;;;;;;-144.99;68.23;52358.41;4991710;28;20225;-73
2021/04/09 07:10:01;;;;;;;16.80;14.83;;;;;;;-144.99;68.37;52366.56;4989889;28;20243;-73
2021/04/09 07:12:29;;;;;;;22.90;18.63;;;;;;;-144.99;68.44;52393.06;4989449;28;20969;-71
2021/04/09 07:14:58;;;;;;;22.95;18.38;;;;;;;-144.99;67.96;52362.50;4989123;28;20212;-72
2021/04/09 07:17:25;;;;;;;17.63;13.27;;;;;;;-144.99;68.93;52368.59;4990661;28;20208;-74
2021/04/09 07:19:52;;;;;;;16.48;11.30;;;;;;;-144.99;67.13;52338.03;4987178;28;20227;-74
2021/04/09 07:22:29;;;;;;;22.23;19.88;;;;;;;-144.99;67.22;52427.72;4990634;28;20200;-73
2021/04/09 07:25:03;;;;;;;30.15;27.17;;;;;;;-144.99;67.68;52354.34;4989647;28;20215;-74
2021/04/09 07:27:29;;;;;;;29.58;24.80;;;;;;;-144.99;68.06;52356.38;4990527;28;20199;-75
2021/04/09 07:29:56;;;;;;;25.23;22.52;;;;;;;-144.99;68.02;52346.19;4990187;28;20227;-74
2021/04/09 07:32:30;;;;;;;23.52;19.80;;;;;;;-144.99;67.87;52285.03;4991122;28;20290;-74
2021/04/09 07:34:59;;;;;;;28.83;25.77;;;;;;;-144.99;67.57;52362.50;4991497;28;20642;-76
2021/04/09 07:37:26;;;;;;;24.33;20.98;;;;;;;-144.99;67.30;52382.88;4990488;28;20573;-74
2021/04/09 07:39:57;;;;;;;27.17;24.20;;;;;;;-144.99;67.36;52331.91;4990102;28;20274;-74
2021/04/09 07:42:34;;;;;;;50.83;46.85;;;;;;;-144.99;67.13;52362.50;5017485;22;20230;-74
2021/04/09 07:45:05;;;;;;;28.33;21.50;;;;;;;-144.99;66.85;52346.19;5005727;28;20213;-74
2021/04/09 07:47:31;;;;;;;18.45;16.13;;;;;;;-144.99;66.73;52309.50;5007953;28;20210;-75
2021/04/09 07:50:02;;;;;;;19.15;14.43;;;;;;;-144.99;66.14;52307.47;5009176;28;20207;-73
2021/04/09 07:52:42;;;;;;;30.73;26.33;;;;;;;-144.99;65.89;52336.00;5006039;28;20215;-74
2021/04/09 07:55:17;;;;;;;20.58;16.13;;;;;;;-144.99;66.45;52350.25;5009221;28;20195;-75
2021/04/09 07:57:44;;;;;;;27.52;21.60;;;;;;;-144.99;65.71;52333.94;5007312;28;20206;-75
2021/04/09 08:00:20;;;;;;;24.30;20.70;;;;;;;-144.99;66.18;52321.72;5009360;28;20695;-75
2021/04/09 08:02:46;;;;;;;20.95;16.17;;;;;;;-144.99;66.41;52336.00;5016308;28;20310;-75
2021/04/09 08:05:14;;;;;;;22.88;17.90;;;;;;;-144.99;66.23;52303.38;5015636;28;20734;-75
2021/04/09 08:07:41;;;;;;;31.10;22.13;;;;;;;-144.99;66.17;52325.81;5012131;28;20203;-73
2021/04/09 08:10:08;;;;;;;29.65;26.45;;;;;;;-144.99;65.86;52319.69;5010252;28;20542;-74
2021/04/09 08:12:37;;;;;;;28.67;25.88;;;;;;;-144.99;65.71;52329.88;5005013;28;20719;-75
2021/04/09 08:15:13;;;;;;;25.63;22.75;;;;;;;-144.99;65.67;52321.72;5009462;28;20207;-76
2021/04/09 08:17:41;;;;;;;26.42;23.58;;;;;;;-144.99;65.32;52358.41;5015117;28;20203;-73
2021/04/09 08:20:12;;;;;;;53.25;49.17;;;;;;;-144.99;65.57;52327.84;5017428;28;20473;-74
2021/04/09 08:22:39;;;;;;;48.92;45.15;;;;;;;-144.99;65.34;52315.59;5017350;28;20222;-75
2021/04/09 08:25:06;;;;;;;53.08;49.47;;;;;;;-144.99;65.59;52333.94;5016776;28;20210;-74
2021/04/09 08:27:34;;;;;;;34.80;32.03;;;;;;;-144.99;65.87;52319.69;5019918;28;20207;-76
2021/04/09 08:30:01;;;;;;;38.67;35.65;;;;;;;-144.99;66.21;52325.81;5019293;28;20206;-76
2021/04/09 08:32:27;;;;;;;41.00;38.05;;;;;;;-144.99;65.83;52346.19;5023051;28;20305;-75
2021/04/09 08:34:56;;;;;;;45.15;41.90;;;;;;;-144.99;66.06;52325.81;5020151;28;20208;-75
2021/04/09 08:37:22;;;;;;;66.32;61.83;;;;;;;-144.99;64.98;52289.13;5016855;28;20191;-76
2021/04/09 08:39:48;;;;;;;53.00;49.53;;;;;;;-144.99;64.78;52309.50;5012990;28;20756;-76
2021/04/09 08:42:16;;;;;;;66.25;61.65;;;;;;;-144.99;64.74;52317.66;5012176;28;20238;-75
2021/04/09 08:44:44;;;;;;;47.08;43.33;;;;;;;-144.99;65.08;52305.41;5007967;28;20202;-76
2021/04/09 08:47:12;;;;;;;44.35;41.25;;;;;;;-144.99;65.12;52331.91;5012727;28;20207;-75
2021/04/09 08:49:38;;;;;;;32.75;29.95;;;;;;;-144.99;64.95;52307.47;5013042;28;20206;-76
2021/04/09 08:52:06;;;;;;;46.78;43.08;;;;;;;-144.99;64.44;52293.19;5011017;28;20218;-75
2021/04/09 08:54:48;;;;;;;27.35;24.63;;;;;;;-144.99;64.43;52297.25;5012135;28;20286;-77
2021/04/09 08:57:26;;;;;;;37.25;34.33;;;;;;;-144.99;64.27;52289.13;5010985;28;20202;-76
2021/04/09 09:00:04;;;;;;;38.17;34.67;;;;;;;-144.99;64.01;52301.34;5012519;28;20234;-76
2021/04/09 09:02:40;;;;;;;44.20;40.67;;;;;;;-144.99;64.44;52338.03;5012559;28;20227;-75
2021/04/09 09:05:08;;;;;;;29.38;26.65;;;;;;;-144.99;64.89;52285.03;5012332;28;20206;-75
2021/04/09 09:07:58;;;;;;;30.50;27.58;;;;;;;-144.99;64.66;52325.81;5011774;28;20205;-74
2021/04/09 09:10:55;;;;;;;38.72;35.15;;;;;;;-144.99;65.18;52297.25;5011215;28;20199;-75
2021/04/09 09:13:23;;;;;;;30.30;27.38;;;;;;;-144.99;64.44;52301.34;5011449;28;20227;-74
2021/04/09 09:15:52;;;;;;;32.50;29.23;;;;;;;-144.99;63.33;52333.94;5009211;28;20210;-75
2021/04/09 09:18:46;;;;;;;41.35;37.95;;;;;;;-144.99;63.66;52319.69;5010090;28;20675;-73
2021/04/09 09:21:24;;;;;;;69.38;62.83;;;;;;;-144.99;62.81;52342.09;5008221;28;20199;-76
2021/04/09 09:23:52;;;;;;;42.53;38.80;;;;;;;-144.99;63.09;52333.94;5011263;28;20785;-75
2021/04/09 09:26:21;;;;;;;110.45;101.78;;;;;;;-144.99;63.67;52297.25;5011208;28;20210;-75
2021/04/09 09:29:07;;;;;;;34.08;31.23;;;;;;;-144.99;63.52;52280.97;5011459;28;20684;-76
2021/04/09 09:31:35;;;;;;;91.05;84.97;;;;;;;-144.99;63.07;52303.38;5010825;28;20242;-74
2021/04/09 09:34:35;;;;;;;30.63;28.15;;;;;;;-144.99;63.68;52323.75;5012079;28;20293;-76
2021/04/09 09:37:06;;;;;;;23.20;20.15;;;;;;;-144.99;63.77;52329.88;5011509;28;20236;-75
2021/04/09 09:39:34;;;;;;;16.70;14.98;;;;;;;-144.99;64.54;52305.41;5011203;28;20338;-77
2021/04/09 09:42:01;;;;;;;33.75;30.80;;;;;;;-144.99;64.36;52340.06;5011115;28;20238;-74
2021/04/09 09:44:33;;;;;;;26.50;23.90;;;;;;;-144.99;64.85;52362.50;5010951;28;20191;-76
2021/04/09 09:47:02;;;;;;;25.33;23.05;;;;;;;-144.99;65.27;52301.34;5010858;28;20211;-74
2021/04/09 09:49:32;;;;;;;23.33;20.85;;;;;;;-144.99;65.00;52321.72;5011628;28;20264;-75
2021/04/09 09:51:58;;;;;;;26.67;24.25;;;;;;;-144.99;65.61;52325.81;5000948;28;20220;-75
2021/04/09 09:54:29;;;;;;;33.22;30.70;;;;;;;-144.99;66.04;52317.66;5010580;28;20286;-75
2021/04/09 09:56:57;;;;;;;46.72;43.22;;;;;;;-144.99;66.30;52344.16;5010653;28;20199;-73
2021/04/09 09:59:26;;;;;;;32.55;29.98;;;;;;;-144.99;66.48;52305.41;5000363;28;20366;-75
2021/04/09 10:01:54;;;;;;;34.58;31.63;;;;;;;-144.99;66.49;52313.56;5002771;28;20227;-74
2021/04/09 10:04:21;;;;;;;32.80;29.67;;;;;;;-144.99;66.26;52272.81;4999075;28;20210;-74
2021/04/09 10:06:54;;;;;;;34.33;31.35;;;;;;;-144.99;66.54;52321.72;5004479;28;20248;-75
2021/04/09 10:09:28;;;;;;;33.67;30.35;;;;;;;-144.99;66.90;52325.81;5002727;28;20206;-74
2021/04/09 10:11:56;;;;;;;45.80;41.85;;;;;;;-144.99;67.02;52315.59;4997412;28;20280;-74
2021/04/09 10:14:23;;;;;;;24.85;22.52;;;;;;;-144.99;67.07;52309.50;4998829;28;20211;-73
2021/04/09 10:16:49;;;;;;;41.50;38.42;;;;;;;-144.99;67.22;52356.38;5004782;28;21493;-74
2021/04/09 10:19:15;;;;;;;46.72;43.15;;;;;;;-144.99;67.12;52301.34;4995602;28;20215;-74
2021/04/09 10:21:43;;;;;;;49.63;45.58;;;;;;;-144.99;67.82;52307.47;4999855;28;20759;-75
2021/04/09 10:24:12;;;;;;;40.15;36.58;;;;;;;-144.99;67.98;52354.34;4996518;28;20207;-75
2021/04/09 10:26:40;;;;;;;50.10;46.33;;;;;;;-144.99;67.72;52293.19;5000318;28;20203;-75
2021/04/09 10:29:24;;;;;;;42.70;38.92;;;;;;;-144.99;68.63;52325.81;4992644;28;20703;-73
2021/04/09 10:31:51;;;;;;;39.78;37.15;;;;;;;-144.99;69.05;52329.88;5003273;28;20318;-76
2021/04/09 10:34:21;;;;;;;40.95;37.95;;;;;;;-144.99;69.30;52354.34;4996932;28;20222;-73
2021/04/09 10:36:48;;;;;;;38.42;35.13;;;;;;;-144.99;69.13;52358.41;5000306;28;20210;-74
2021/04/09 10:39:15;;;;;;;43.92;40.78;;;;;;;-144.99;69.60;52358.41;4999237;28;20215;-73
2021/04/09 10:41:46;;;;;;;36.47;33.58;;;;;;;-144.99;69.84;52297.25;5003744;28;20199;-72
2021/04/09 10:44:15;;;;;;;37.20;34.03;;;;;;;-144.99;70.16;52293.19;5003607;28;20199;-71
2021/04/09 10:46:44;;;;;;;37.08;34.08;;;;;;;-144.99;70.52;52325.81;4998702;28;20214;-74
2021/04/09 10:49:14;;;;;;;39.50;36.45;;;;;;;-144.99;70.42;52289.13;5002096;28;20208;-72
2021/04/09 10:51:43;;;;;;;28.70;26.55;;;;;;;-144.99;70.81;52329.88;4994826;28;20235;-74
2021/04/09 10:54:11;;;;;;;28.73;26.05;;;;;;;-144.99;71.14;52338.03;5007565;28;20704;-74
2021/04/09 10:56:37;;;;;;;28.90;26.48;;;;;;;-144.99;71.45;52370.63;5004108;28;20207;-73
2021/04/09 10:59:07;;;;;;;42.97;40.05;;;;;;;-144.99;71.78;52342.09;5010763;28;20227;-73
2021/04/09 11:01:35;;;;;;;29.25;26.70;;;;;;;-144.99;72.16;52317.66;5003070;28;20212;-73
2021/04/09 11:04:02;;;;;;;33.90;31.23;;;;;;;-144.99;72.42;52380.84;5001829;28;20698;-73
2021/04/09 11:06:30;;;;;;;36.80;33.28;;;;;;;-144.99;72.99;52297.25;4999794;28;20666;-74
2021/04/09 11:08:59;;;;;;;25.55;23.35;;;;;;;-144.99;73.07;52354.34;4998229;28;20481;-73